sensor_id;sensor_type;location;lat;lon;timestamp;P1;durP1;ratioP1;P2;durP2;ratioP2
35418;SDS011;21525;41.240;16.500;2023-07-13T00:02:16;6.43;;;3.63;;
35418;SDS011;21525;41.240;16.500;2023-07-13T00:04:42;12.10;;;4.53;;
35418;SDS011;21525;41.240;16.500;2023-07-13T00:07:08;11.63;;;4.10;;
35418;SDS011;21525;41.240;16.500;2023-07-13T00:09:34;6.72;;;3.92;;
35418;SDS011;21525;41.240;16.500;2023-07-13T00:12:00;9.02;;;4.00;;
35418;SDS011;21525;41.240;16.500;2023-07-13T00:14:28;9.40;;;4.10;;
35418;SDS011;21525;41.240;16.500;2023-07-13T00:16:54;11.52;;;4.30;;
35418;SDS011;21525;41.240;16.500;2023-07-13T00:19:21;9.50;;;4.20;;
35418;SDS011;21525;41.240;16.500;2023-07-13T00:21:46;10.57;;;4.70;;
35418;SDS011;21525;41.240;16.500;2023-07-13T00:24:14;13.35;;;4.40;;
35418;SDS011;21525;41.240;16.500;2023-07-13T00:26:42;7.05;;;3.67;;
35418;SDS011;21525;41.240;16.500;2023-07-13T00:29:11;7.78;;;4.15;;
35418;SDS011;21525;41.240;16.500;2023-07-13T00:31:37;13.68;;;4.57;;
35418;SDS011;21525;41.240;16.500;2023-07-13T00:34:04;10.70;;;5.20;;
35418;SDS011;21525;41.240;16.500;2023-07-13T00:36:30;11.32;;;4.35;;
35418;SDS011;21525;41.240;16.500;2023-07-13T00:38:57;10.48;;;4.65;;
35418;SDS011;21525;41.240;16.500;2023-07-13T00:41:23;8.80;;;4.55;;
35418;SDS011;21525;41.240;16.500;2023-07-13T00:43:49;9.70;;;4.28;;
35418;SDS011;21525;41.240;16.500;2023-07-13T00:46:17;9.23;;;3.63;;
35418;SDS011;21525;41.240;16.500;2023-07-13T00:48:55;10.55;;;4.20;;
35418;SDS011;21525;41.240;16.500;2023-07-13T00:51:26;7.65;;;3.80;;
35418;SDS011;21525;41.240;16.500;2023-07-13T00:53:56;9.02;;;4.00;;
35418;SDS011;21525;41.240;16.500;2023-07-13T00:56:28;5.47;;;3.75;;
35418;SDS011;21525;41.240;16.500;2023-07-13T00:58:55;12.90;;;4.68;;
35418;SDS011;21525;41.240;16.500;2023-07-13T01:01:22;11.80;;;4.10;;
35418;SDS011;21525;41.240;16.500;2023-07-13T01:03:48;8.52;;;4.10;;
35418;SDS011;21525;41.240;16.500;2023-07-13T01:06:14;12.52;;;4.05;;
35418;SDS011;21525;41.240;16.500;2023-07-13T01:08:40;8.57;;;4.32;;
35418;SDS011;21525;41.240;16.500;2023-07-13T01:11:06;11.32;;;3.97;;
35418;SDS011;21525;41.240;16.500;2023-07-13T01:13:33;9.02;;;3.83;;
35418;SDS011;21525;41.240;16.500;2023-07-13T01:16:01;10.93;;;4.05;;
35418;SDS011;21525;41.240;16.500;2023-07-13T01:18:30;11.20;;;4.88;;
35418;SDS011;21525;41.240;16.500;2023-07-13T01:20:58;9.75;;;4.65;;
35418;SDS011;21525;41.240;16.500;2023-07-13T01:23:28;9.88;;;4.20;;
35418;SDS011;21525;41.240;16.500;2023-07-13T01:25:55;9.57;;;4.53;;
35418;SDS011;21525;41.240;16.500;2023-07-13T01:28:22;15.30;;;4.75;;
35418;SDS011;21525;41.240;16.500;2023-07-13T01:30:52;21.42;;;9.05;;
35418;SDS011;21525;41.240;16.500;2023-07-13T01:33:19;8.13;;;5.17;;
35418;SDS011;21525;41.240;16.500;2023-07-13T01:35:45;11.73;;;4.40;;
35418;SDS011;21525;41.240;16.500;2023-07-13T01:38:13;9.80;;;4.35;;
35418;SDS011;21525;41.240;16.500;2023-07-13T01:40:41;9.23;;;4.43;;
35418;SDS011;21525;41.240;16.500;2023-07-13T01:43:06;9.70;;;4.55;;
35418;SDS011;21525;41.240;16.500;2023-07-13T01:45:32;13.38;;;5.07;;
35418;SDS011;21525;41.240;16.500;2023-07-13T01:47:58;12.73;;;5.63;;
35418;SDS011;21525;41.240;16.500;2023-07-13T01:50:24;14.93;;;4.60;;
35418;SDS011;21525;41.240;16.500;2023-07-13T01:52:52;12.27;;;5.53;;
35418;SDS011;21525;41.240;16.500;2023-07-13T01:55:18;14.32;;;5.32;;
35418;SDS011;21525;41.240;16.500;2023-07-13T01:57:45;14.38;;;5.22;;
35418;SDS011;21525;41.240;16.500;2023-07-13T02:00:12;19.08;;;6.45;;
35418;SDS011;21525;41.240;16.500;2023-07-13T02:02:41;16.33;;;7.15;;
35418;SDS011;21525;41.240;16.500;2023-07-13T02:05:09;10.80;;;5.53;;
35418;SDS011;21525;41.240;16.500;2023-07-13T02:07:34;14.00;;;5.43;;
35418;SDS011;21525;41.240;16.500;2023-07-13T02:10:00;12.75;;;5.22;;
35418;SDS011;21525;41.240;16.500;2023-07-13T02:12:26;12.80;;;5.65;;
35418;SDS011;21525;41.240;16.500;2023-07-13T02:14:52;20.88;;;6.82;;
35418;SDS011;21525;41.240;16.500;2023-07-13T02:17:18;13.50;;;5.35;;
35418;SDS011;21525;41.240;16.500;2023-07-13T02:19:43;123.57;;;16.23;;
35418;SDS011;21525;41.240;16.500;2023-07-13T02:22:09;32.42;;;6.65;;
35418;SDS011;21525;41.240;16.500;2023-07-13T02:24:35;33.70;;;6.30;;
35418;SDS011;21525;41.240;16.500;2023-07-13T02:27:00;28.85;;;7.30;;
35418;SDS011;21525;41.240;16.500;2023-07-13T02:29:26;27.83;;;6.95;;
35418;SDS011;21525;41.240;16.500;2023-07-13T02:31:52;23.30;;;6.65;;
35418;SDS011;21525;41.240;16.500;2023-07-13T02:34:18;16.92;;;5.20;;
35418;SDS011;21525;41.240;16.500;2023-07-13T02:36:43;11.82;;;4.45;;
35418;SDS011;21525;41.240;16.500;2023-07-13T02:39:09;14.63;;;4.75;;
35418;SDS011;21525;41.240;16.500;2023-07-13T02:41:37;12.90;;;4.85;;
35418;SDS011;21525;41.240;16.500;2023-07-13T02:44:04;14.75;;;5.78;;
35418;SDS011;21525;41.240;16.500;2023-07-13T02:46:30;12.40;;;5.35;;
35418;SDS011;21525;41.240;16.500;2023-07-13T02:48:56;9.93;;;5.38;;
35418;SDS011;21525;41.240;16.500;2023-07-13T02:51:22;12.23;;;5.80;;
35418;SDS011;21525;41.240;16.500;2023-07-13T02:53:48;11.63;;;5.78;;
35418;SDS011;21525;41.240;16.500;2023-07-13T02:56:14;20.52;;;5.95;;
35418;SDS011;21525;41.240;16.500;2023-07-13T02:58:39;18.15;;;6.05;;
35418;SDS011;21525;41.240;16.500;2023-07-13T03:01:07;13.70;;;5.50;;
35418;SDS011;21525;41.240;16.500;2023-07-13T03:03:34;17.52;;;5.03;;
35418;SDS011;21525;41.240;16.500;2023-07-13T03:06:01;9.27;;;4.22;;
35418;SDS011;21525;41.240;16.500;2023-07-13T03:08:34;12.48;;;5.03;;
35418;SDS011;21525;41.240;16.500;2023-07-13T03:13:34;13.48;;;4.88;;
35418;SDS011;21525;41.240;16.500;2023-07-13T03:16:02;13.43;;;4.57;;
35418;SDS011;21525;41.240;16.500;2023-07-13T03:18:28;9.73;;;4.55;;
35418;SDS011;21525;41.240;16.500;2023-07-13T03:20:57;10.45;;;5.03;;
35418;SDS011;21525;41.240;16.500;2023-07-13T03:23:24;13.88;;;4.45;;
35418;SDS011;21525;41.240;16.500;2023-07-13T03:25:50;9.10;;;4.38;;
35418;SDS011;21525;41.240;16.500;2023-07-13T03:28:28;9.38;;;4.50;;
35418;SDS011;21525;41.240;16.500;2023-07-13T03:31:04;10.57;;;4.45;;
35418;SDS011;21525;41.240;16.500;2023-07-13T03:35:58;9.73;;;4.50;;
35418;SDS011;21525;41.240;16.500;2023-07-13T03:38:24;12.45;;;3.85;;
35418;SDS011;21525;41.240;16.500;2023-07-13T03:40:52;14.40;;;4.28;;
35418;SDS011;21525;41.240;16.500;2023-07-13T03:43:18;12.77;;;3.80;;
35418;SDS011;21525;41.240;16.500;2023-07-13T03:45:46;12.45;;;3.75;;
35418;SDS011;21525;41.240;16.500;2023-07-13T03:48:12;9.23;;;3.97;;
35418;SDS011;21525;41.240;16.500;2023-07-13T03:50:39;13.95;;;4.75;;
35418;SDS011;21525;41.240;16.500;2023-07-13T03:53:05;14.57;;;4.38;;
35418;SDS011;21525;41.240;16.500;2023-07-13T03:55:31;14.00;;;5.20;;
35418;SDS011;21525;41.240;16.500;2023-07-13T03:58:00;16.75;;;4.60;;
35418;SDS011;21525;41.240;16.500;2023-07-13T04:00:47;9.90;;;3.83;;
35418;SDS011;21525;41.240;16.500;2023-07-13T04:03:13;13.13;;;4.05;;
35418;SDS011;21525;41.240;16.500;2023-07-13T04:05:38;12.02;;;3.95;;
35418;SDS011;21525;41.240;16.500;2023-07-13T04:08:05;15.18;;;3.92;;
35418;SDS011;21525;41.240;16.500;2023-07-13T04:10:32;18.35;;;5.07;;
35418;SDS011;21525;41.240;16.500;2023-07-13T04:12:58;17.25;;;4.70;;
35418;SDS011;21525;41.240;16.500;2023-07-13T04:15:24;19.15;;;5.15;;
35418;SDS011;21525;41.240;16.500;2023-07-13T04:17:50;18.77;;;5.18;;
35418;SDS011;21525;41.240;16.500;2023-07-13T04:20:15;17.25;;;5.13;;
35418;SDS011;21525;41.240;16.500;2023-07-13T04:22:41;26.17;;;6.20;;
35418;SDS011;21525;41.240;16.500;2023-07-13T04:25:07;19.38;;;6.50;;
35418;SDS011;21525;41.240;16.500;2023-07-13T04:27:33;24.17;;;6.00;;
35418;SDS011;21525;41.240;16.500;2023-07-13T04:29:58;21.20;;;6.40;;
35418;SDS011;21525;41.240;16.500;2023-07-13T04:32:24;32.83;;;7.35;;
35418;SDS011;21525;41.240;16.500;2023-07-13T04:34:50;21.90;;;6.63;;
35418;SDS011;21525;41.240;16.500;2023-07-13T04:37:18;31.92;;;6.90;;
35418;SDS011;21525;41.240;16.500;2023-07-13T04:39:45;17.02;;;6.32;;
35418;SDS011;21525;41.240;16.500;2023-07-13T04:42:11;18.35;;;6.95;;
35418;SDS011;21525;41.240;16.500;2023-07-13T04:44:37;25.45;;;7.13;;
35418;SDS011;21525;41.240;16.500;2023-07-13T04:47:02;31.25;;;8.27;;
35418;SDS011;21525;41.240;16.500;2023-07-13T04:49:28;22.42;;;7.78;;
35418;SDS011;21525;41.240;16.500;2023-07-13T04:51:54;28.70;;;8.60;;
35418;SDS011;21525;41.240;16.500;2023-07-13T04:54:20;25.13;;;7.80;;
35418;SDS011;21525;41.240;16.500;2023-07-13T04:56:47;26.02;;;6.65;;
35418;SDS011;21525;41.240;16.500;2023-07-13T04:59:12;19.50;;;7.38;;
35418;SDS011;21525;41.240;16.500;2023-07-13T05:01:38;27.75;;;6.63;;
35418;SDS011;21525;41.240;16.500;2023-07-13T05:04:04;19.08;;;6.82;;
35418;SDS011;21525;41.240;16.500;2023-07-13T05:06:30;23.73;;;6.95;;
35418;SDS011;21525;41.240;16.500;2023-07-13T05:08:56;21.65;;;6.68;;
35418;SDS011;21525;41.240;16.500;2023-07-13T05:11:22;34.90;;;8.93;;
35418;SDS011;21525;41.240;16.500;2023-07-13T05:13:48;23.83;;;7.85;;
35418;SDS011;21525;41.240;16.500;2023-07-13T05:16:14;25.60;;;7.72;;
35418;SDS011;21525;41.240;16.500;2023-07-13T05:18:39;34.78;;;8.45;;
35418;SDS011;21525;41.240;16.500;2023-07-13T05:21:06;25.80;;;7.68;;
35418;SDS011;21525;41.240;16.500;2023-07-13T05:23:34;31.90;;;7.63;;
35418;SDS011;21525;41.240;16.500;2023-07-13T05:26:01;21.33;;;6.73;;
35418;SDS011;21525;41.240;16.500;2023-07-13T05:28:27;19.63;;;6.68;;
35418;SDS011;21525;41.240;16.500;2023-07-13T05:30:55;30.42;;;7.55;;
35418;SDS011;21525;41.240;16.500;2023-07-13T05:33:21;32.08;;;8.23;;
35418;SDS011;21525;41.240;16.500;2023-07-13T05:35:47;34.50;;;9.43;;
35418;SDS011;21525;41.240;16.500;2023-07-13T05:38:13;26.30;;;7.22;;
35418;SDS011;21525;41.240;16.500;2023-07-13T05:40:39;31.90;;;7.68;;
35418;SDS011;21525;41.240;16.500;2023-07-13T05:43:05;34.33;;;8.70;;
35418;SDS011;21525;41.240;16.500;2023-07-13T05:45:30;31.88;;;8.25;;
35418;SDS011;21525;41.240;16.500;2023-07-13T05:47:56;32.85;;;7.32;;
35418;SDS011;21525;41.240;16.500;2023-07-13T05:50:22;31.90;;;7.80;;
35418;SDS011;21525;41.240;16.500;2023-07-13T05:52:47;33.45;;;8.23;;
35418;SDS011;21525;41.240;16.500;2023-07-13T05:55:13;33.45;;;7.82;;
35418;SDS011;21525;41.240;16.500;2023-07-13T05:57:39;32.47;;;7.60;;
35418;SDS011;21525;41.240;16.500;2023-07-13T06:00:05;43.03;;;8.50;;
35418;SDS011;21525;41.240;16.500;2023-07-13T06:02:37;30.45;;;9.13;;
35418;SDS011;21525;41.240;16.500;2023-07-13T06:05:03;51.42;;;10.43;;
35418;SDS011;21525;41.240;16.500;2023-07-13T06:07:30;39.45;;;10.00;;
35418;SDS011;21525;41.240;16.500;2023-07-13T06:09:56;37.33;;;9.60;;
35418;SDS011;21525;41.240;16.500;2023-07-13T06:12:21;49.00;;;11.35;;
35418;SDS011;21525;41.240;16.500;2023-07-13T06:14:47;49.00;;;11.02;;
35418;SDS011;21525;41.240;16.500;2023-07-13T06:17:13;48.22;;;9.90;;
35418;SDS011;21525;41.240;16.500;2023-07-13T06:19:39;52.00;;;10.15;;
35418;SDS011;21525;41.240;16.500;2023-07-13T06:22:04;45.00;;;12.15;;
35418;SDS011;21525;41.240;16.500;2023-07-13T06:24:30;59.20;;;11.90;;
35418;SDS011;21525;41.240;16.500;2023-07-13T06:26:56;41.90;;;10.43;;
35418;SDS011;21525;41.240;16.500;2023-07-13T06:29:22;43.50;;;10.93;;
35418;SDS011;21525;41.240;16.500;2023-07-13T06:31:47;42.88;;;12.02;;
35418;SDS011;21525;41.240;16.500;2023-07-13T06:34:13;50.05;;;10.70;;
35418;SDS011;21525;41.240;16.500;2023-07-13T06:36:39;51.80;;;11.77;;
35418;SDS011;21525;41.240;16.500;2023-07-13T06:39:06;54.47;;;12.00;;
35418;SDS011;21525;41.240;16.500;2023-07-13T06:41:32;59.50;;;13.70;;
35418;SDS011;21525;41.240;16.500;2023-07-13T06:43:58;62.00;;;20.60;;
35418;SDS011;21525;41.240;16.500;2023-07-13T06:46:24;61.90;;;21.70;;
35418;SDS011;21525;41.240;16.500;2023-07-13T06:48:50;62.05;;;22.98;;
35418;SDS011;21525;41.240;16.500;2023-07-13T06:51:16;57.30;;;19.50;;
35418;SDS011;21525;41.240;16.500;2023-07-13T06:53:42;41.00;;;16.08;;
35418;SDS011;21525;41.240;16.500;2023-07-13T06:56:09;45.60;;;17.20;;
35418;SDS011;21525;41.240;16.500;2023-07-13T06:58:36;51.40;;;16.00;;
35418;SDS011;21525;41.240;16.500;2023-07-13T07:01:02;54.15;;;15.95;;
35418;SDS011;21525;41.240;16.500;2023-07-13T07:03:28;48.33;;;14.20;;
35418;SDS011;21525;41.240;16.500;2023-07-13T07:05:59;48.45;;;14.10;;
35418;SDS011;21525;41.240;16.500;2023-07-13T07:08:26;59.35;;;14.32;;
35418;SDS011;21525;41.240;16.500;2023-07-13T07:10:52;45.08;;;13.27;;
35418;SDS011;21525;41.240;16.500;2023-07-13T07:13:19;39.70;;;10.63;;
35418;SDS011;21525;41.240;16.500;2023-07-13T07:15:45;42.17;;;10.98;;
35418;SDS011;21525;41.240;16.500;2023-07-13T07:18:11;36.92;;;9.60;;
35418;SDS011;21525;41.240;16.500;2023-07-13T07:20:37;35.75;;;9.32;;
35418;SDS011;21525;41.240;16.500;2023-07-13T07:23:03;39.58;;;9.05;;
35418;SDS011;21525;41.240;16.500;2023-07-13T07:25:28;34.72;;;8.20;;
35418;SDS011;21525;41.240;16.500;2023-07-13T07:27:57;30.80;;;8.25;;
35418;SDS011;21525;41.240;16.500;2023-07-13T07:32:50;25.23;;;7.63;;
35418;SDS011;21525;41.240;16.500;2023-07-13T07:35:16;26.98;;;7.15;;
35418;SDS011;21525;41.240;16.500;2023-07-13T07:37:42;31.40;;;8.15;;
35418;SDS011;21525;41.240;16.500;2023-07-13T07:40:08;31.63;;;8.77;;
35418;SDS011;21525;41.240;16.500;2023-07-13T07:42:34;27.10;;;9.02;;
35418;SDS011;21525;41.240;16.500;2023-07-13T07:45:00;33.10;;;9.15;;
35418;SDS011;21525;41.240;16.500;2023-07-13T07:47:26;27.15;;;7.53;;
35418;SDS011;21525;41.240;16.500;2023-07-13T07:49:52;23.88;;;7.20;;
35418;SDS011;21525;41.240;16.500;2023-07-13T07:52:18;31.35;;;7.47;;
35418;SDS011;21525;41.240;16.500;2023-07-13T07:54:44;27.80;;;7.15;;
35418;SDS011;21525;41.240;16.500;2023-07-13T07:57:10;31.20;;;8.05;;
35418;SDS011;21525;41.240;16.500;2023-07-13T07:59:36;50.78;;;8.68;;
35418;SDS011;21525;41.240;16.500;2023-07-13T08:02:02;37.72;;;8.32;;
35418;SDS011;21525;41.240;16.500;2023-07-13T08:04:28;40.83;;;9.02;;
35418;SDS011;21525;41.240;16.500;2023-07-13T08:06:54;36.05;;;7.93;;
35418;SDS011;21525;41.240;16.500;2023-07-13T08:09:21;26.02;;;7.38;;
35418;SDS011;21525;41.240;16.500;2023-07-13T08:11:47;33.10;;;8.10;;
35418;SDS011;21525;41.240;16.500;2023-07-13T08:14:13;22.65;;;6.93;;
35418;SDS011;21525;41.240;16.500;2023-07-13T08:16:39;16.90;;;5.88;;
35418;SDS011;21525;41.240;16.500;2023-07-13T08:19:05;10.27;;;4.40;;
35418;SDS011;21525;41.240;16.500;2023-07-13T08:21:31;7.47;;;4.20;;
35418;SDS011;21525;41.240;16.500;2023-07-13T08:23:57;14.98;;;5.10;;
35418;SDS011;21525;41.240;16.500;2023-07-13T08:26:23;17.63;;;4.95;;
35418;SDS011;21525;41.240;16.500;2023-07-13T08:28:49;23.88;;;10.02;;
35418;SDS011;21525;41.240;16.500;2023-07-13T08:31:14;28.88;;;10.43;;
35418;SDS011;21525;41.240;16.500;2023-07-13T08:33:40;24.83;;;8.50;;
35418;SDS011;21525;41.240;16.500;2023-07-13T08:36:06;24.30;;;8.98;;
35418;SDS011;21525;41.240;16.500;2023-07-13T08:38:32;23.63;;;8.52;;
35418;SDS011;21525;41.240;16.500;2023-07-13T08:40:58;24.85;;;6.55;;
35418;SDS011;21525;41.240;16.500;2023-07-13T08:43:30;19.10;;;6.20;;
35418;SDS011;21525;41.240;16.500;2023-07-13T08:46:08;14.80;;;6.95;;
35418;SDS011;21525;41.240;16.500;2023-07-13T08:48:41;16.83;;;6.22;;
35418;SDS011;21525;41.240;16.500;2023-07-13T08:53:46;17.10;;;6.72;;
35418;SDS011;21525;41.240;16.500;2023-07-13T08:56:24;23.42;;;7.00;;
35418;SDS011;21525;41.240;16.500;2023-07-13T08:58:56;23.85;;;6.80;;
35418;SDS011;21525;41.240;16.500;2023-07-13T09:04:07;29.27;;;6.75;;
35418;SDS011;21525;41.240;16.500;2023-07-13T09:06:45;26.40;;;7.13;;
35418;SDS011;21525;41.240;16.500;2023-07-13T09:12:21;32.90;;;7.85;;
35418;SDS011;21525;41.240;16.500;2023-07-13T09:14:54;24.48;;;7.15;;
35418;SDS011;21525;41.240;16.500;2023-07-13T09:17:31;25.95;;;7.03;;
35418;SDS011;21525;41.240;16.500;2023-07-13T09:20:14;20.90;;;6.57;;
35418;SDS011;21525;41.240;16.500;2023-07-13T09:22:59;19.00;;;6.85;;
35418;SDS011;21525;41.240;16.500;2023-07-13T09:25:30;22.63;;;7.30;;
35418;SDS011;21525;41.240;16.500;2023-07-13T09:27:59;19.85;;;7.55;;
35418;SDS011;21525;41.240;16.500;2023-07-13T09:30:56;23.65;;;7.70;;
35418;SDS011;21525;41.240;16.500;2023-07-13T09:33:31;24.80;;;7.53;;
35418;SDS011;21525;41.240;16.500;2023-07-13T09:35:58;17.23;;;6.97;;
35418;SDS011;21525;41.240;16.500;2023-07-13T09:38:24;16.88;;;6.65;;
35418;SDS011;21525;41.240;16.500;2023-07-13T09:43:28;21.27;;;6.97;;
35418;SDS011;21525;41.240;16.500;2023-07-13T09:45:54;19.85;;;7.10;;
35418;SDS011;21525;41.240;16.500;2023-07-13T09:48:21;18.60;;;6.53;;
35418;SDS011;21525;41.240;16.500;2023-07-13T09:50:47;16.08;;;6.00;;
35418;SDS011;21525;41.240;16.500;2023-07-13T09:53:13;20.77;;;6.18;;
35418;SDS011;21525;41.240;16.500;2023-07-13T09:55:42;22.33;;;7.40;;
35418;SDS011;21525;41.240;16.500;2023-07-13T10:00:41;16.27;;;6.60;;
35418;SDS011;21525;41.240;16.500;2023-07-13T10:05:55;20.70;;;7.30;;
35418;SDS011;21525;41.240;16.500;2023-07-13T10:08:32;22.90;;;6.53;;
35418;SDS011;21525;41.240;16.500;2023-07-13T10:11:02;21.75;;;6.03;;
35418;SDS011;21525;41.240;16.500;2023-07-13T10:13:46;17.80;;;5.65;;
35418;SDS011;21525;41.240;16.500;2023-07-13T10:16:16;14.35;;;5.25;;
35418;SDS011;21525;41.240;16.500;2023-07-13T10:18:48;16.23;;;5.70;;
35418;SDS011;21525;41.240;16.500;2023-07-13T10:21:19;14.52;;;5.20;;
35418;SDS011;21525;41.240;16.500;2023-07-13T10:23:48;16.65;;;5.20;;
35418;SDS011;21525;41.240;16.500;2023-07-13T10:26:21;7.95;;;4.47;;
35418;SDS011;21525;41.240;16.500;2023-07-13T10:28:52;11.73;;;4.90;;
35418;SDS011;21525;41.240;16.500;2023-07-13T10:31:21;17.73;;;5.20;;
35418;SDS011;21525;41.240;16.500;2023-07-13T10:33:48;14.98;;;5.63;;
35418;SDS011;21525;41.240;16.500;2023-07-13T10:36:20;14.60;;;5.72;;
35418;SDS011;21525;41.240;16.500;2023-07-13T10:39:09;14.88;;;7.05;;
35418;SDS011;21525;41.240;16.500;2023-07-13T10:41:42;13.88;;;6.07;;
35418;SDS011;21525;41.240;16.500;2023-07-13T10:44:18;17.05;;;6.85;;
35418;SDS011;21525;41.240;16.500;2023-07-13T10:46:53;11.82;;;6.63;;
35418;SDS011;21525;41.240;16.500;2023-07-13T10:49:21;13.73;;;7.07;;
35418;SDS011;21525;41.240;16.500;2023-07-13T10:51:48;12.98;;;6.80;;
35418;SDS011;21525;41.240;16.500;2023-07-13T10:54:15;14.45;;;7.05;;
35418;SDS011;21525;41.240;16.500;2023-07-13T10:56:48;16.63;;;7.68;;
35418;SDS011;21525;41.240;16.500;2023-07-13T10:59:18;11.15;;;6.20;;
35418;SDS011;21525;41.240;16.500;2023-07-13T11:04:23;12.82;;;6.40;;
35418;SDS011;21525;41.240;16.500;2023-07-13T11:06:53;10.73;;;5.63;;
35418;SDS011;21525;41.240;16.500;2023-07-13T11:09:32;14.50;;;5.95;;
35418;SDS011;21525;41.240;16.500;2023-07-13T11:20:10;16.35;;;6.18;;
35418;SDS011;21525;41.240;16.500;2023-07-13T11:22:47;10.38;;;4.97;;
35418;SDS011;21525;41.240;16.500;2023-07-13T11:25:27;14.45;;;5.25;;
35418;SDS011;21525;41.240;16.500;2023-07-13T11:38:17;13.07;;;5.35;;
35418;SDS011;21525;41.240;16.500;2023-07-13T11:40:45;13.50;;;5.47;;
35418;SDS011;21525;41.240;16.500;2023-07-13T11:43:16;11.18;;;5.00;;
35418;SDS011;21525;41.240;16.500;2023-07-13T11:45:42;11.43;;;4.82;;
35418;SDS011;21525;41.240;16.500;2023-07-13T11:51:04;12.75;;;5.85;;
35418;SDS011;21525;41.240;16.500;2023-07-13T11:53:36;11.90;;;5.85;;
35418;SDS011;21525;41.240;16.500;2023-07-13T11:56:05;11.73;;;6.10;;
35418;SDS011;21525;41.240;16.500;2023-07-13T11:58:32;13.95;;;4.80;;
35418;SDS011;21525;41.240;16.500;2023-07-13T12:00:58;9.48;;;5.35;;
35418;SDS011;21525;41.240;16.500;2023-07-13T12:03:27;8.93;;;5.22;;
35418;SDS011;21525;41.240;16.500;2023-07-13T12:08:37;12.55;;;5.53;;
35418;SDS011;21525;41.240;16.500;2023-07-13T12:11:17;9.50;;;5.32;;
35418;SDS011;21525;41.240;16.500;2023-07-13T12:13:44;9.60;;;5.72;;
35418;SDS011;21525;41.240;16.500;2023-07-13T12:18:42;15.25;;;5.95;;
35418;SDS011;21525;41.240;16.500;2023-07-13T12:21:14;9.32;;;4.90;;
35418;SDS011;21525;41.240;16.500;2023-07-13T12:23:44;9.07;;;5.00;;
35418;SDS011;21525;41.240;16.500;2023-07-13T12:26:14;13.45;;;5.85;;
35418;SDS011;21525;41.240;16.500;2023-07-13T12:28:49;12.35;;;5.90;;
35418;SDS011;21525;41.240;16.500;2023-07-13T12:33:45;12.57;;;5.88;;
35418;SDS011;21525;41.240;16.500;2023-07-13T12:36:11;12.18;;;5.70;;
35418;SDS011;21525;41.240;16.500;2023-07-13T12:38:37;12.95;;;6.22;;
35418;SDS011;21525;41.240;16.500;2023-07-13T12:41:04;12.45;;;5.75;;
35418;SDS011;21525;41.240;16.500;2023-07-13T12:43:32;9.10;;;6.20;;
35418;SDS011;21525;41.240;16.500;2023-07-13T12:46:15;12.27;;;6.03;;
35418;SDS011;21525;41.240;16.500;2023-07-13T12:48:42;13.73;;;6.15;;
35418;SDS011;21525;41.240;16.500;2023-07-13T12:53:40;12.30;;;5.90;;
35418;SDS011;21525;41.240;16.500;2023-07-13T12:56:08;9.32;;;5.90;;
35418;SDS011;21525;41.240;16.500;2023-07-13T13:01:15;14.95;;;6.15;;
35418;SDS011;21525;41.240;16.500;2023-07-13T13:03:52;11.85;;;6.68;;
35418;SDS011;21525;41.240;16.500;2023-07-13T13:06:21;17.13;;;8.07;;
35418;SDS011;21525;41.240;16.500;2023-07-13T13:08:50;16.00;;;8.32;;
35418;SDS011;21525;41.240;16.500;2023-07-13T13:11:21;14.80;;;7.38;;
35418;SDS011;21525;41.240;16.500;2023-07-13T13:13:48;12.15;;;7.55;;
35418;SDS011;21525;41.240;16.500;2023-07-13T13:18:54;13.40;;;8.23;;
35418;SDS011;21525;41.240;16.500;2023-07-13T13:21:22;14.77;;;8.40;;
35418;SDS011;21525;41.240;16.500;2023-07-13T13:23:49;12.77;;;8.52;;
35418;SDS011;21525;41.240;16.500;2023-07-13T13:26:16;14.68;;;7.88;;
35418;SDS011;21525;41.240;16.500;2023-07-13T13:28:44;16.40;;;7.20;;
35418;SDS011;21525;41.240;16.500;2023-07-13T13:31:11;10.95;;;7.05;;
35418;SDS011;21525;41.240;16.500;2023-07-13T13:33:39;11.13;;;6.80;;
35418;SDS011;21525;41.240;16.500;2023-07-13T13:36:15;14.43;;;7.30;;
35418;SDS011;21525;41.240;16.500;2023-07-13T13:38:42;9.15;;;5.43;;
35418;SDS011;21525;41.240;16.500;2023-07-13T13:41:09;10.75;;;5.70;;
35418;SDS011;21525;41.240;16.500;2023-07-13T13:43:36;12.35;;;5.68;;
35418;SDS011;21525;41.240;16.500;2023-07-13T13:46:02;10.38;;;6.20;;
35418;SDS011;21525;41.240;16.500;2023-07-13T13:48:36;13.95;;;5.90;;
35418;SDS011;21525;41.240;16.500;2023-07-13T13:51:09;15.27;;;6.45;;
35418;SDS011;21525;41.240;16.500;2023-07-13T13:53:45;11.77;;;5.72;;
35418;SDS011;21525;41.240;16.500;2023-07-13T13:56:12;10.68;;;6.30;;
35418;SDS011;21525;41.240;16.500;2023-07-13T13:58:38;14.35;;;6.45;;
35418;SDS011;21525;41.240;16.500;2023-07-13T14:01:08;13.48;;;6.13;;
35418;SDS011;21525;41.240;16.500;2023-07-13T14:03:42;10.88;;;5.93;;
35418;SDS011;21525;41.240;16.500;2023-07-13T14:06:12;14.25;;;6.07;;
35418;SDS011;21525;41.240;16.500;2023-07-13T14:08:39;12.52;;;6.03;;
35418;SDS011;21525;41.240;16.500;2023-07-13T14:11:05;14.73;;;6.65;;
35418;SDS011;21525;41.240;16.500;2023-07-13T14:13:38;14.02;;;6.78;;
35418;SDS011;21525;41.240;16.500;2023-07-13T14:16:15;12.40;;;5.78;;
35418;SDS011;21525;41.240;16.500;2023-07-13T14:18:45;12.70;;;6.18;;
35418;SDS011;21525;41.240;16.500;2023-07-13T14:21:15;13.38;;;6.57;;
35418;SDS011;21525;41.240;16.500;2023-07-13T14:23:44;12.48;;;7.00;;
35418;SDS011;21525;41.240;16.500;2023-07-13T14:26:11;15.57;;;7.10;;
35418;SDS011;21525;41.240;16.500;2023-07-13T14:28:43;12.50;;;6.68;;
35418;SDS011;21525;41.240;16.500;2023-07-13T14:31:13;14.88;;;6.65;;
35418;SDS011;21525;41.240;16.500;2023-07-13T14:33:40;14.32;;;6.28;;
35418;SDS011;21525;41.240;16.500;2023-07-13T14:36:21;12.30;;;6.85;;
35418;SDS011;21525;41.240;16.500;2023-07-13T14:38:48;12.48;;;6.40;;
35418;SDS011;21525;41.240;16.500;2023-07-13T14:41:15;10.45;;;5.68;;
35418;SDS011;21525;41.240;16.500;2023-07-13T14:43:41;13.82;;;7.05;;
35418;SDS011;21525;41.240;16.500;2023-07-13T14:46:07;12.02;;;6.72;;
35418;SDS011;21525;41.240;16.500;2023-07-13T14:48:43;9.50;;;6.72;;
35418;SDS011;21525;41.240;16.500;2023-07-13T14:51:09;12.35;;;6.97;;
35418;SDS011;21525;41.240;16.500;2023-07-13T14:53:37;8.88;;;5.28;;
35418;SDS011;21525;41.240;16.500;2023-07-13T14:56:09;10.93;;;5.70;;
35418;SDS011;21525;41.240;16.500;2023-07-13T14:58:36;12.07;;;5.75;;
35418;SDS011;21525;41.240;16.500;2023-07-13T15:01:01;14.23;;;5.85;;
35418;SDS011;21525;41.240;16.500;2023-07-13T15:03:27;11.70;;;6.47;;
35418;SDS011;21525;41.240;16.500;2023-07-13T15:05:53;12.05;;;6.13;;
35418;SDS011;21525;41.240;16.500;2023-07-13T15:08:20;11.95;;;6.47;;
35418;SDS011;21525;41.240;16.500;2023-07-13T15:10:46;13.07;;;6.63;;
35418;SDS011;21525;41.240;16.500;2023-07-13T15:13:16;10.57;;;6.22;;
35418;SDS011;21525;41.240;16.500;2023-07-13T15:15:45;11.30;;;5.70;;
35418;SDS011;21525;41.240;16.500;2023-07-13T15:18:14;10.52;;;6.03;;
35418;SDS011;21525;41.240;16.500;2023-07-13T15:20:42;11.82;;;6.00;;
35418;SDS011;21525;41.240;16.500;2023-07-13T15:23:13;15.10;;;5.75;;
35418;SDS011;21525;41.240;16.500;2023-07-13T15:25:40;9.30;;;5.63;;
35418;SDS011;21525;41.240;16.500;2023-07-13T15:28:07;14.10;;;5.50;;
35418;SDS011;21525;41.240;16.500;2023-07-13T15:30:39;8.82;;;5.03;;